createdAt,value
2017-10-23T00:01:00.994Z,1.37
2017-10-23T00:03:27.515Z,0.82
2017-10-23T00:05:54.033Z,0.90
2017-10-23T00:08:20.515Z,0.98
2017-10-23T00:10:47.698Z,0.70
2017-10-23T00:13:14.161Z,1.05
2017-10-23T00:15:40.666Z,0.90
2017-10-23T00:18:07.118Z,0.73
2017-10-23T00:20:33.606Z,0.70
2017-10-23T00:23:00.125Z,0.90
2017-10-23T00:25:27.314Z,0.75
2017-10-23T00:27:54.493Z,0.73
2017-10-23T00:30:21.004Z,1.00
2017-10-23T00:32:47.466Z,0.80
2017-10-23T00:35:13.947Z,0.75
2017-10-23T00:37:41.190Z,1.00
2017-10-23T00:40:07.730Z,0.88
2017-10-23T00:42:34.945Z,0.90
2017-10-23T00:45:02.198Z,0.90
2017-10-23T00:47:28.678Z,0.80
2017-10-23T00:49:55.159Z,0.70
2017-10-23T00:52:21.730Z,1.08
2017-10-23T00:54:48.201Z,0.80
2017-10-23T00:57:15.216Z,0.82
2017-10-23T00:59:42.474Z,1.15
2017-10-23T01:02:09.708Z,0.98
2017-10-23T01:04:36.209Z,0.98
2017-10-23T01:07:02.723Z,0.80
2017-10-23T01:09:29.225Z,0.70
2017-10-23T01:11:55.739Z,0.77
2017-10-23T01:14:22.287Z,0.93
2017-10-23T01:16:48.751Z,1.35
2017-10-23T01:19:15.278Z,1.08
2017-10-23T01:21:42.548Z,1.20
2017-10-23T01:24:09.125Z,0.90
2017-10-23T01:26:36.438Z,1.00
2017-10-23T01:29:02.950Z,0.80
2017-10-23T01:31:29.474Z,0.95
2017-10-23T01:33:56.745Z,1.25
2017-10-23T01:36:23.242Z,0.75
2017-10-23T01:38:49.802Z,1.02
2017-10-23T01:41:17.086Z,1.20
2017-10-23T01:43:43.547Z,0.77
2017-10-23T01:46:10.988Z,1.00
2017-10-23T01:48:37.498Z,0.85
2017-10-23T01:51:04.049Z,0.90
2017-10-23T01:53:30.533Z,0.95
2017-10-23T01:55:57.818Z,0.93
2017-10-23T01:58:24.330Z,0.75
2017-10-23T02:00:50.819Z,1.10
2017-10-23T02:03:17.363Z,1.20
2017-10-23T02:05:43.917Z,1.05
2017-10-23T02:08:11.219Z,0.85
2017-10-23T02:10:37.753Z,0.90
2017-10-23T02:13:04.287Z,1.05
2017-10-23T02:15:30.804Z,0.60
2017-10-23T02:17:58.074Z,1.00
2017-10-23T02:20:24.714Z,1.50
2017-10-23T02:22:51.177Z,0.80
2017-10-23T02:25:17.640Z,0.90
2017-10-23T02:27:44.839Z,1.08
2017-10-23T02:30:11.339Z,1.08
2017-10-23T02:32:37.774Z,1.27
2017-10-23T02:35:04.251Z,1.30
2017-10-23T02:37:30.702Z,0.80
2017-10-23T02:39:57.170Z,1.30
2017-10-23T02:42:23.649Z,1.00
2017-10-23T02:44:50.139Z,1.45
2017-10-23T02:47:16.662Z,1.10
2017-10-23T02:49:43.182Z,1.08
2017-10-23T02:52:09.601Z,1.05
2017-10-23T02:54:36.040Z,0.80
2017-10-23T02:57:02.548Z,1.10
2017-10-23T02:59:29.017Z,0.82
2017-10-23T03:01:56.198Z,1.10
2017-10-23T03:04:22.639Z,1.40
2017-10-23T03:06:49.881Z,1.40
2017-10-23T03:09:17.133Z,1.30
2017-10-23T03:11:44.391Z,1.37
2017-10-23T03:14:10.958Z,1.40
2017-10-23T03:16:37.483Z,1.20
2017-10-23T03:19:03.965Z,1.40
2017-10-23T03:21:31.238Z,1.30
2017-10-23T03:23:57.902Z,1.40
2017-10-23T03:26:24.506Z,1.30
2017-10-23T03:28:51.040Z,0.90
2017-10-23T03:31:18.311Z,1.40
2017-10-23T03:33:45.539Z,1.20
2017-10-23T03:36:12.804Z,1.48
2017-10-23T03:38:39.366Z,1.25
2017-10-23T03:41:06.050Z,1.48
2017-10-23T03:43:32.570Z,1.52
2017-10-23T03:45:59.113Z,1.15
2017-10-23T03:48:25.680Z,1.25
2017-10-23T03:50:52.955Z,1.30
2017-10-23T03:53:19.543Z,1.45
2017-10-23T03:55:46.125Z,1.50
2017-10-23T03:58:13.357Z,1.10
2017-10-23T04:00:40.607Z,1.42
2017-10-23T04:03:07.211Z,1.45
2017-10-23T04:05:34.574Z,1.55
2017-10-23T04:08:01.202Z,1.05
2017-10-23T04:10:27.682Z,1.08
2017-10-23T04:12:54.291Z,1.62
2017-10-23T04:15:20.860Z,1.83
2017-10-23T04:17:47.402Z,1.55
2017-10-23T04:20:13.986Z,1.50
2017-10-23T04:22:40.594Z,1.50
2017-10-23T04:25:07.128Z,1.70
2017-10-23T04:27:33.637Z,1.60
2017-10-23T04:30:01.036Z,1.70
2017-10-23T04:32:27.557Z,1.70
2017-10-23T04:34:54.085Z,2.60
2017-10-23T04:37:20.685Z,2.87
2017-10-23T04:39:47.951Z,3.00
2017-10-23T04:42:14.485Z,1.87
2017-10-23T04:44:41.032Z,1.65
2017-10-23T04:47:07.518Z,1.70
2017-10-23T04:49:34.798Z,1.50
2017-10-23T04:52:02.076Z,1.52
2017-10-23T04:54:28.667Z,1.60
2017-10-23T04:56:55.158Z,1.40
2017-10-23T04:59:21.690Z,1.60
2017-10-23T05:01:48.219Z,2.72
2017-10-23T05:04:14.739Z,6.43
2017-10-23T05:06:41.267Z,4.30
2017-10-23T05:09:07.856Z,3.03
2017-10-23T05:11:34.356Z,3.10
2017-10-23T05:14:00.870Z,2.85
2017-10-23T05:16:27.414Z,1.90
2017-10-23T05:18:53.926Z,1.90
2017-10-23T05:21:20.452Z,1.40
2017-10-23T05:23:46.986Z,1.60
2017-10-23T05:26:14.297Z,1.80
2017-10-23T05:28:40.822Z,1.52
2017-10-23T05:31:07.387Z,2.20
2017-10-23T05:33:33.921Z,2.30
2017-10-23T05:36:00.434Z,4.25
2017-10-23T05:38:26.959Z,3.87
2017-10-23T05:40:53.522Z,2.20
2017-10-23T05:43:20.032Z,2.00
2017-10-23T05:45:46.545Z,2.40
2017-10-23T05:48:13.070Z,3.20
2017-10-23T05:50:40.318Z,4.93
2017-10-23T05:53:06.825Z,3.25
2017-10-23T05:55:33.399Z,2.25
2017-10-23T05:57:59.958Z,4.15
2017-10-23T06:00:26.432Z,3.53
2017-10-23T06:02:52.950Z,3.50
2017-10-23T06:05:19.438Z,3.10
2017-10-23T06:07:45.977Z,3.80
2017-10-23T06:10:12.533Z,3.35
2017-10-23T06:12:39.050Z,3.03
2017-10-23T06:15:06.410Z,2.47
2017-10-23T06:17:33.003Z,2.55
2017-10-23T06:19:59.577Z,2.47
2017-10-23T06:22:26.113Z,2.20
2017-10-23T06:24:52.646Z,1.85
2017-10-23T06:27:19.209Z,1.90
2017-10-23T06:29:45.762Z,2.25
2017-10-23T06:32:12.263Z,1.92
2017-10-23T06:34:38.799Z,2.45
2017-10-23T06:37:05.329Z,5.30
2017-10-23T06:39:31.913Z,4.90
2017-10-23T06:41:59.199Z,3.25
2017-10-23T06:44:26.442Z,4.40
2017-10-23T06:46:52.989Z,2.15
2017-10-23T06:49:19.532Z,2.53
2017-10-23T06:51:46.086Z,2.50
2017-10-23T06:54:12.634Z,2.12
2017-10-23T06:56:39.187Z,2.65
2017-10-23T06:59:05.669Z,2.50
2017-10-23T07:01:32.282Z,2.30
2017-10-23T07:03:58.822Z,2.25
2017-10-23T07:06:25.373Z,2.15
2017-10-23T07:08:51.865Z,2.20
2017-10-23T07:11:18.394Z,1.70
2017-10-23T07:13:44.930Z,1.60
2017-10-23T07:16:11.474Z,4.32
2017-10-23T07:18:38.014Z,1.70
2017-10-23T07:21:04.525Z,1.77
2017-10-23T07:23:31.038Z,1.65
2017-10-23T07:25:57.576Z,1.90
2017-10-23T07:28:24.079Z,1.60
2017-10-23T07:30:50.591Z,1.83
2017-10-23T07:33:17.858Z,2.00
2017-10-23T07:35:44.357Z,2.00
2017-10-23T07:38:10.855Z,1.45
2017-10-23T07:40:37.343Z,1.50
2017-10-23T07:43:03.866Z,1.45
2017-10-23T07:45:30.554Z,1.87
2017-10-23T07:47:57.173Z,1.58
2017-10-23T07:50:23.662Z,1.80
2017-10-23T07:52:51.564Z,1.62
2017-10-23T07:55:19.134Z,2.55
2017-10-23T07:57:46.350Z,2.40
2017-10-23T08:00:13.603Z,2.72
2017-10-23T08:02:40.087Z,2.25
2017-10-23T08:05:07.341Z,3.10
2017-10-23T08:07:33.785Z,2.80
2017-10-23T08:10:00.258Z,2.50
2017-10-23T08:12:26.752Z,2.75
2017-10-23T08:14:53.239Z,2.10
2017-10-23T08:17:19.731Z,3.40
2017-10-23T08:19:46.213Z,2.47
2017-10-23T08:22:12.830Z,2.40
2017-10-23T08:24:39.269Z,2.22
2017-10-23T08:27:05.746Z,3.00
2017-10-23T08:29:32.310Z,1.80
2017-10-23T08:31:58.788Z,2.28
2017-10-23T08:34:26.010Z,2.37
2017-10-23T08:36:53.222Z,2.50
2017-10-23T08:39:20.408Z,2.30
2017-10-23T08:41:47.607Z,2.15
2017-10-23T08:44:14.813Z,2.45
2017-10-23T08:46:41.250Z,2.35
2017-10-23T08:49:07.719Z,2.25
2017-10-23T08:51:35.025Z,2.20
2017-10-23T08:54:01.518Z,2.40
2017-10-23T08:56:28.071Z,1.80
2017-10-23T08:58:54.613Z,1.70
2017-10-23T09:01:21.115Z,1.83
2017-10-23T09:03:47.626Z,1.83
2017-10-23T09:06:14.090Z,1.45
2017-10-23T09:08:40.562Z,1.15
2017-10-23T09:11:07.007Z,1.30
2017-10-23T09:13:33.556Z,2.50
2017-10-23T09:16:00.822Z,1.20
2017-10-23T09:18:28.118Z,3.12
2017-10-23T09:20:54.594Z,1.50
2017-10-23T09:23:21.046Z,3.00
2017-10-23T09:25:47.535Z,1.23
2017-10-23T09:28:14.045Z,0.90
2017-10-23T09:30:40.536Z,1.15
2017-10-23T09:33:07.844Z,1.00
2017-10-23T09:35:34.357Z,0.75
2017-10-23T09:38:01.586Z,1.05
2017-10-23T09:40:28.914Z,0.77
2017-10-23T09:42:55.401Z,0.90
2017-10-23T09:45:22.622Z,1.00
2017-10-23T09:47:49.066Z,1.67
2017-10-23T09:50:15.533Z,1.23
2017-10-23T09:52:42.070Z,1.35
2017-10-23T09:55:08.596Z,1.83
2017-10-23T09:57:35.048Z,1.20
2017-10-23T10:00:01.525Z,2.83
2017-10-23T10:02:28.020Z,3.50
2017-10-23T10:04:54.513Z,2.83
2017-10-23T10:07:20.985Z,2.25
2017-10-23T10:09:47.453Z,1.30
2017-10-23T10:12:13.915Z,1.10
2017-10-23T10:14:41.133Z,0.80
2017-10-23T10:17:07.635Z,1.25
2017-10-23T10:19:34.151Z,1.25
2017-10-23T10:22:00.640Z,0.90
2017-10-23T10:24:27.101Z,1.30
2017-10-23T10:26:53.566Z,1.50
2017-10-23T10:29:20.085Z,1.20
2017-10-23T10:31:46.620Z,1.62
2017-10-23T10:34:13.069Z,1.20
2017-10-23T10:36:39.549Z,1.00
2017-10-23T10:39:06.799Z,1.00
2017-10-23T10:41:33.247Z,0.85
2017-10-23T10:44:00.477Z,1.00
2017-10-23T10:46:26.928Z,0.60
2017-10-23T10:48:53.426Z,0.60
2017-10-23T10:51:19.928Z,0.60
2017-10-23T10:53:46.369Z,0.80
2017-10-23T10:56:12.815Z,0.65
2017-10-23T10:58:39.294Z,0.90
2017-10-23T11:01:05.775Z,0.77
2017-10-23T11:03:32.264Z,0.60
2017-10-23T11:05:58.731Z,1.00
2017-10-23T11:08:25.263Z,1.05
2017-10-23T11:10:51.713Z,1.00
2017-10-23T11:13:18.182Z,0.90
2017-10-23T11:15:44.674Z,1.40
2017-10-23T11:18:11.166Z,1.00
2017-10-23T11:20:38.427Z,1.42
2017-10-23T11:23:05.661Z,1.33
2017-10-23T11:25:32.126Z,1.40
2017-10-23T11:27:58.685Z,1.40
2017-10-23T11:30:25.186Z,1.02
2017-10-23T11:32:52.467Z,1.30
2017-10-23T11:35:18.926Z,1.50
2017-10-23T11:37:45.432Z,1.30
2017-10-23T11:40:11.935Z,1.40
2017-10-23T11:42:38.460Z,1.67
2017-10-23T11:45:05.653Z,1.58
2017-10-23T11:47:32.170Z,1.87
2017-10-23T11:49:58.642Z,1.80
2017-10-23T11:52:25.997Z,1.52
2017-10-23T11:54:52.469Z,1.65
2017-10-23T11:57:18.899Z,1.65
2017-10-23T11:59:45.370Z,1.33
2017-10-23T12:02:11.906Z,1.75
2017-10-23T12:04:38.386Z,1.75
2017-10-23T12:07:04.885Z,1.40
2017-10-23T12:09:31.345Z,1.60
2017-10-23T12:11:57.838Z,1.83
2017-10-23T12:14:24.429Z,2.25
2017-10-23T12:16:51.714Z,2.40
2017-10-23T12:19:18.339Z,1.80
2017-10-23T12:21:45.039Z,1.80
2017-10-23T12:24:11.666Z,1.35
2017-10-23T12:26:38.223Z,1.50
2017-10-23T12:29:04.723Z,1.23
2017-10-23T12:31:31.198Z,1.65
2017-10-23T12:33:57.673Z,1.30
2017-10-23T12:36:24.160Z,1.40
2017-10-23T12:38:50.655Z,1.70
2017-10-23T12:41:17.201Z,1.40
2017-10-23T12:43:44.409Z,0.90
2017-10-23T12:46:11.043Z,1.48
2017-10-23T12:48:37.562Z,1.25
2017-10-23T12:51:04.897Z,1.17
2017-10-23T12:53:31.381Z,1.20
2017-10-23T12:55:58.560Z,1.20
2017-10-23T12:58:24.996Z,1.17
2017-10-23T13:00:51.457Z,0.80
2017-10-23T13:03:18.681Z,1.30
2017-10-23T13:05:45.142Z,0.85
2017-10-23T13:08:11.602Z,0.70
2017-10-23T13:10:38.800Z,1.00
2017-10-23T13:13:05.242Z,0.90
2017-10-23T13:15:32.441Z,0.95
2017-10-23T13:17:58.927Z,0.75
2017-10-23T13:20:25.432Z,1.27
2017-10-23T13:22:51.932Z,0.90
2017-10-23T13:25:18.429Z,1.08
2017-10-23T13:27:44.922Z,1.80
2017-10-23T13:30:11.467Z,1.80
2017-10-23T13:32:37.921Z,3.78
2017-10-23T13:35:04.429Z,1.30
2017-10-23T13:37:30.915Z,1.10
2017-10-23T13:39:58.162Z,0.98
2017-10-23T13:42:24.612Z,1.30
2017-10-23T13:44:51.094Z,1.10
2017-10-23T13:47:17.595Z,0.70
2017-10-23T13:49:44.089Z,1.00
2017-10-23T13:52:10.606Z,1.15
2017-10-23T13:54:37.135Z,0.60
2017-10-23T13:57:03.609Z,0.95
2017-10-23T13:59:30.190Z,1.10
2017-10-23T14:01:56.726Z,1.20
2017-10-23T14:04:23.197Z,1.30
2017-10-23T14:06:49.808Z,1.20
2017-10-23T14:09:16.255Z,1.08
2017-10-23T14:11:42.724Z,0.98
2017-10-23T14:14:09.182Z,1.05
2017-10-23T14:16:35.725Z,1.40
2017-10-23T14:19:02.318Z,1.20
2017-10-23T14:21:29.585Z,1.35
2017-10-23T14:23:56.125Z,1.45
2017-10-23T14:26:23.409Z,1.42
2017-10-23T14:28:49.958Z,2.55
2017-10-23T14:31:16.487Z,5.65
2017-10-23T14:33:43.045Z,4.65
2017-10-23T14:36:09.561Z,1.90
2017-10-23T14:38:36.133Z,2.70
2017-10-23T14:41:02.725Z,2.85
2017-10-23T14:43:29.431Z,3.83
2017-10-23T14:45:56.016Z,1.80
2017-10-23T14:48:22.580Z,2.00
2017-10-23T14:50:49.850Z,3.42
2017-10-23T14:53:16.497Z,2.35
2017-10-23T14:55:43.123Z,3.25
2017-10-23T14:58:10.422Z,1.77
2017-10-23T15:00:37.001Z,2.55
2017-10-23T15:03:04.267Z,2.72
2017-10-23T15:05:30.819Z,2.00
2017-10-23T15:07:57.418Z,5.28
2017-10-23T15:10:24.714Z,8.43
2017-10-23T15:12:51.938Z,8.63
2017-10-23T15:15:18.477Z,4.95
2017-10-23T15:17:45.073Z,4.62
2017-10-23T15:20:11.615Z,4.15
2017-10-23T15:22:39.020Z,4.75
2017-10-23T15:25:05.567Z,3.40
2017-10-23T15:27:32.095Z,3.78
2017-10-23T15:29:58.634Z,3.35
2017-10-23T15:32:25.114Z,4.28
2017-10-23T15:34:51.636Z,3.75
2017-10-23T15:37:18.164Z,5.55
2017-10-23T15:39:44.641Z,3.40
2017-10-23T15:42:11.107Z,3.60
2017-10-23T15:44:37.622Z,3.70
2017-10-23T15:47:04.125Z,2.53
2017-10-23T15:49:30.645Z,2.72
2017-10-23T15:51:57.123Z,4.30
2017-10-23T15:54:24.386Z,6.10
2017-10-23T15:56:50.874Z,3.55
2017-10-23T15:59:17.361Z,3.53
2017-10-23T16:01:43.827Z,2.60
2017-10-23T16:04:10.267Z,2.00
2017-10-23T16:06:36.761Z,2.42
2017-10-23T16:09:04.061Z,2.87
2017-10-23T16:11:31.278Z,3.53
2017-10-23T16:13:57.812Z,3.03
2017-10-23T16:16:24.316Z,2.40
2017-10-23T16:18:50.882Z,2.92
2017-10-23T16:21:17.358Z,2.60
2017-10-23T16:23:43.861Z,3.30
2017-10-23T16:26:10.345Z,3.30
2017-10-23T16:28:37.612Z,12.30
2017-10-23T16:31:04.968Z,12.00
2017-10-23T16:33:31.443Z,35.03
2017-10-23T16:35:57.989Z,13.30
2017-10-23T16:38:25.366Z,6.18
2017-10-23T16:40:51.829Z,3.40
2017-10-23T16:43:19.051Z,3.80
2017-10-23T16:45:45.600Z,3.60
2017-10-23T16:48:12.137Z,3.62
2017-10-23T16:50:39.358Z,3.10
2017-10-23T16:53:05.888Z,2.50
2017-10-23T16:55:33.111Z,3.53
2017-10-23T16:57:59.589Z,2.60
2017-10-23T17:00:26.144Z,2.30
2017-10-23T17:02:52.710Z,2.60
2017-10-23T17:05:19.336Z,4.15
2017-10-23T17:07:45.789Z,5.05
2017-10-23T17:10:12.225Z,3.30
2017-10-23T17:12:45.801Z,3.35
2017-10-23T17:15:12.363Z,2.72
2017-10-23T17:17:38.859Z,4.20
2017-10-23T17:20:05.379Z,3.83
2017-10-23T17:22:31.887Z,3.30
2017-10-23T17:24:58.430Z,2.80
2017-10-23T17:27:24.890Z,3.28
2017-10-23T17:29:51.355Z,5.50
2017-10-23T17:32:17.850Z,5.75
2017-10-23T17:34:44.339Z,5.57
2017-10-23T17:37:10.866Z,4.40
2017-10-23T17:39:37.368Z,3.87
2017-10-23T17:42:04.582Z,4.65
2017-10-23T17:44:31.089Z,4.28
2017-10-23T17:46:57.627Z,4.75
2017-10-23T17:49:24.081Z,5.22
2017-10-23T17:51:50.614Z,5.60
2017-10-23T17:54:17.127Z,5.55
2017-10-23T17:56:43.620Z,6.30
2017-10-23T17:59:10.113Z,5.30
2017-10-23T18:01:37.323Z,5.72
2017-10-23T18:04:03.819Z,4.43
2017-10-23T18:06:30.332Z,3.80
2017-10-23T18:08:56.819Z,3.50
2017-10-23T18:11:23.351Z,4.65
2017-10-23T18:13:50.608Z,4.05
2017-10-23T18:16:17.177Z,3.97
2017-10-23T18:18:43.693Z,4.25
2017-10-23T18:21:10.175Z,3.58
2017-10-23T18:23:37.377Z,3.60
2017-10-23T18:26:03.873Z,3.42
2017-10-23T18:28:30.358Z,3.80
2017-10-23T18:30:56.850Z,3.03
2017-10-23T18:33:24.064Z,2.90
2017-10-23T18:35:50.521Z,3.47
2017-10-23T18:38:17.742Z,3.75
2017-10-23T18:40:44.224Z,3.45
2017-10-23T18:43:10.815Z,3.00
2017-10-23T18:45:37.278Z,3.60
2017-10-23T18:48:03.743Z,3.30
2017-10-23T18:50:30.184Z,2.97
2017-10-23T18:55:56.366Z,4.62
2017-10-23T18:58:22.839Z,3.75
2017-10-23T19:00:50.041Z,2.90
2017-10-23T19:03:17.294Z,3.65
2017-10-23T19:05:44.590Z,3.00
2017-10-23T19:08:11.826Z,3.00
2017-10-23T19:10:38.347Z,3.20
2017-10-23T19:13:05.589Z,3.50
2017-10-23T19:15:32.094Z,3.50
2017-10-23T19:17:58.674Z,4.00
2017-10-23T19:20:25.101Z,3.40
2017-10-23T19:22:51.543Z,2.62
2017-10-23T19:25:18.041Z,3.50
2017-10-23T19:27:44.573Z,4.22
2017-10-23T19:30:11.087Z,3.12
2017-10-23T19:32:37.682Z,3.90
2017-10-23T19:35:04.118Z,3.30
2017-10-23T19:37:31.316Z,3.62
2017-10-23T19:39:57.781Z,4.32
2017-10-23T19:42:24.320Z,3.90
2017-10-23T19:44:50.775Z,3.40
2017-10-23T19:47:17.212Z,4.07
2017-10-23T19:49:43.767Z,3.97
2017-10-23T19:52:10.983Z,4.07
2017-10-23T19:54:37.449Z,3.97
2017-10-23T19:57:03.977Z,4.00
2017-10-23T19:59:31.175Z,4.65
2017-10-23T20:01:57.818Z,3.87
2017-10-23T20:04:24.338Z,3.87
2017-10-23T20:06:50.840Z,3.80
2017-10-23T20:09:17.359Z,4.25
2017-10-23T20:11:43.853Z,3.83
2017-10-23T20:14:10.346Z,4.30
2017-10-23T20:16:36.794Z,3.87
2017-10-23T20:19:03.240Z,4.00
2017-10-23T20:21:29.722Z,3.92
2017-10-23T20:23:56.219Z,3.53
2017-10-23T20:26:22.663Z,3.80
2017-10-23T20:28:49.238Z,4.35
2017-10-23T20:31:15.775Z,4.70
2017-10-23T20:33:42.958Z,5.15
2017-10-23T20:36:09.454Z,4.80
2017-10-23T20:38:35.933Z,5.25
2017-10-23T20:41:02.497Z,4.60
2017-10-23T20:43:29.034Z,4.28
2017-10-23T20:45:55.547Z,4.97
2017-10-23T20:48:21.999Z,4.93
2017-10-23T20:50:49.214Z,4.10
2017-10-23T20:53:15.646Z,4.95
2017-10-23T20:55:42.177Z,4.90
2017-10-23T20:58:08.600Z,5.10
2017-10-23T21:00:35.110Z,4.62
2017-10-23T21:03:01.618Z,4.90
2017-10-23T21:05:28.848Z,4.80
2017-10-23T21:07:55.328Z,6.20
2017-10-23T21:10:22.512Z,4.75
2017-10-23T21:12:48.950Z,3.90
2017-10-23T21:15:15.417Z,4.68
2017-10-23T21:17:41.886Z,3.97
2017-10-23T21:20:09.090Z,4.40
2017-10-23T21:22:35.577Z,4.32
2017-10-23T21:25:02.766Z,4.25
2017-10-23T21:27:29.217Z,4.95
2017-10-23T21:29:55.635Z,5.78
2017-10-23T21:32:22.889Z,5.65
2017-10-23T21:34:50.077Z,5.12
2017-10-23T21:37:16.530Z,4.70
2017-10-23T21:39:43.750Z,4.30
2017-10-23T21:42:10.209Z,5.05
2017-10-23T21:44:37.451Z,4.00
2017-10-23T21:47:08.480Z,4.07
2017-10-23T21:49:34.825Z,4.70
2017-10-23T21:52:02.086Z,4.78
2017-10-23T21:54:29.263Z,4.43
2017-10-23T21:56:55.685Z,4.80
2017-10-23T21:59:22.151Z,4.20
2017-10-23T22:01:49.402Z,5.03
2017-10-23T22:04:15.964Z,4.40
2017-10-23T22:06:42.418Z,4.35
2017-10-23T22:09:09.650Z,5.78
2017-10-23T22:11:36.869Z,5.03
2017-10-23T22:14:03.382Z,5.12
2017-10-23T22:16:29.811Z,4.10
2017-10-23T22:18:56.274Z,3.87
2017-10-23T22:21:22.751Z,3.83
2017-10-23T22:23:49.270Z,4.22
2017-10-23T22:26:16.490Z,4.28
2017-10-23T22:28:42.950Z,4.18
2017-10-23T22:31:09.425Z,4.05
2017-10-23T22:33:35.919Z,4.47
2017-10-23T22:36:02.342Z,4.00
2017-10-23T22:38:28.769Z,4.32
2017-10-23T22:40:55.223Z,3.62
2017-10-23T22:43:21.676Z,3.80
2017-10-23T22:45:48.162Z,3.62
2017-10-23T22:48:14.662Z,3.22
2017-10-23T22:50:41.149Z,3.42
2017-10-23T22:53:07.561Z,3.47
2017-10-23T22:55:34.018Z,3.62
2017-10-23T22:58:01.253Z,3.10
2017-10-23T23:00:27.724Z,3.20
2017-10-23T23:02:54.231Z,3.80
2017-10-23T23:05:20.664Z,2.97
2017-10-23T23:07:47.118Z,3.40
2017-10-23T23:10:13.617Z,2.72
2017-10-23T23:12:40.027Z,3.83
2017-10-23T23:15:06.505Z,3.53
2017-10-23T23:17:33.682Z,3.25
2017-10-23T23:20:00.901Z,3.65
2017-10-23T23:22:27.358Z,3.60
2017-10-23T23:24:53.894Z,3.62
2017-10-23T23:27:21.109Z,4.30
2017-10-23T23:29:47.622Z,3.60
2017-10-23T23:32:14.114Z,4.10
2017-10-23T23:34:40.557Z,4.03
2017-10-23T23:37:07.002Z,4.10
2017-10-23T23:39:33.506Z,3.85
2017-10-23T23:41:59.958Z,3.78
2017-10-23T23:44:26.384Z,3.83
2017-10-23T23:46:53.580Z,3.83
2017-10-23T23:49:20.017Z,3.92
2017-10-23T23:51:46.485Z,3.90
2017-10-23T23:54:12.923Z,3.90
2017-10-23T23:56:39.414Z,4.05
2017-10-23T23:59:05.850Z,4.95
